Los Sarmientos, Argentina
Current Conditions -  °F | °C
As of 6:00 PM on Monday 20 Oct 2014 (Local Time) from SANT Reporting Station
Scattered Clouds Scattered Clouds  
Wind Chill: 79°   Ceiling: Unl
Heat Index: 80°   Visibility: 6mi
Dew Point: 61°   Wind: 7mph
Humidity: 54%   Direction: 320°NW
Pressure: 30"   Gusts: NA
Location:  27.4°S, 65.68°W
Report Text: SANT 202100Z 32006KT 9999 FEW030 SCT10026/16 Q1016
Loading
Personal Weather Stations






























Interactive Weather Map
Tropical Storm Tracking
New forecast layout! Learn more

10-Day Weather Forecast

Advertisements
Track Severe Weather on mobile